sensor_id;sensor_type;location;lat;lon;timestamp;temperature;humidity
11664;DHT22;72375;59.302;18.204;2024-03-02T00:01:57;5.30;99.90
11664;DHT22;72375;59.302;18.204;2024-03-02T00:04:44;5.30;99.90
11664;DHT22;72375;59.302;18.204;2024-03-02T00:07:30;5.30;99.90
11664;DHT22;72375;59.302;18.204;2024-03-02T00:10:19;5.20;99.90
11664;DHT22;72375;59.302;18.204;2024-03-02T00:13:05;5.20;99.90
11664;DHT22;72375;59.302;18.204;2024-03-02T00:15:54;5.20;99.90
11664;DHT22;72375;59.302;18.204;2024-03-02T00:18:39;5.20;99.90
11664;DHT22;72375;59.302;18.204;2024-03-02T00:21:27;5.20;99.90
11664;DHT22;72375;59.302;18.204;2024-03-02T00:24:20;5.20;99.90
11664;DHT22;72375;59.302;18.204;2024-03-02T00:27:07;5.20;99.90
11664;DHT22;72375;59.302;18.204;2024-03-02T00:29:55;5.20;99.90
11664;DHT22;72375;59.302;18.204;2024-03-02T00:32:44;5.20;99.90
11664;DHT22;72375;59.302;18.204;2024-03-02T00:35:29;5.20;99.90
11664;DHT22;72375;59.302;18.204;2024-03-02T00:38:15;5.20;99.90
11664;DHT22;72375;59.302;18.204;2024-03-02T00:41:05;5.20;99.90
11664;DHT22;72375;59.302;18.204;2024-03-02T00:43:58;5.10;99.90
11664;DHT22;72375;59.302;18.204;2024-03-02T00:46:44;5.00;99.90
11664;DHT22;72375;59.302;18.204;2024-03-02T00:49:31;5.10;99.90
11664;DHT22;72375;59.302;18.204;2024-03-02T00:52:17;5.00;99.90
11664;DHT22;72375;59.302;18.204;2024-03-02T00:55:03;5.00;99.90
11664;DHT22;72375;59.302;18.204;2024-03-02T00:57:50;5.00;99.90
11664;DHT22;72375;59.302;18.204;2024-03-02T01:00:35;5.00;99.90
11664;DHT22;72375;59.302;18.204;2024-03-02T01:03:21;5.00;99.90
11664;DHT22;72375;59.302;18.204;2024-03-02T01:06:08;5.00;99.90
11664;DHT22;72375;59.302;18.204;2024-03-02T01:08:54;4.90;99.90
11664;DHT22;72375;59.302;18.204;2024-03-02T01:11:40;4.90;99.90
11664;DHT22;72375;59.302;18.204;2024-03-02T01:14:25;5.00;99.90
11664;DHT22;72375;59.302;18.204;2024-03-02T01:17:11;4.90;99.90
11664;DHT22;72375;59.302;18.204;2024-03-02T01:19:56;4.90;99.90
11664;DHT22;72375;59.302;18.204;2024-03-02T01:22:44;4.90;99.90
11664;DHT22;72375;59.302;18.204;2024-03-02T01:25:29;4.90;99.90
11664;DHT22;72375;59.302;18.204;2024-03-02T01:28:15;5.00;99.90
11664;DHT22;72375;59.302;18.204;2024-03-02T01:31:01;4.90;99.90
11664;DHT22;72375;59.302;18.204;2024-03-02T01:33:47;4.90;99.90
11664;DHT22;72375;59.302;18.204;2024-03-02T01:36:32;4.90;99.90
11664;DHT22;72375;59.302;18.204;2024-03-02T01:39:20;4.90;99.90
11664;DHT22;72375;59.302;18.204;2024-03-02T01:42:05;4.90;99.90
11664;DHT22;72375;59.302;18.204;2024-03-02T01:44:51;4.80;99.90
11664;DHT22;72375;59.302;18.204;2024-03-02T01:47:36;4.80;99.90
11664;DHT22;72375;59.302;18.204;2024-03-02T01:50:26;4.80;99.90
11664;DHT22;72375;59.302;18.204;2024-03-02T01:53:12;4.80;99.90
11664;DHT22;72375;59.302;18.204;2024-03-02T01:55:59;4.80;99.90
11664;DHT22;72375;59.302;18.204;2024-03-02T01:58:45;4.80;99.90
11664;DHT22;72375;59.302;18.204;2024-03-02T02:01:31;4.80;99.90
11664;DHT22;72375;59.302;18.204;2024-03-02T02:04:17;4.80;99.90
11664;DHT22;72375;59.302;18.204;2024-03-02T02:07:02;4.80;99.90
11664;DHT22;72375;59.302;18.204;2024-03-02T02:09:48;4.80;99.90
11664;DHT22;72375;59.302;18.204;2024-03-02T02:12:35;4.80;99.90
11664;DHT22;72375;59.302;18.204;2024-03-02T02:15:22;4.80;99.90
11664;DHT22;72375;59.302;18.204;2024-03-02T02:18:08;4.80;99.90
11664;DHT22;72375;59.302;18.204;2024-03-02T02:20:53;4.80;99.90
11664;DHT22;72375;59.302;18.204;2024-03-02T02:23:40;4.80;99.90
11664;DHT22;72375;59.302;18.204;2024-03-02T02:26:30;4.80;99.90
11664;DHT22;72375;59.302;18.204;2024-03-02T02:29:16;4.70;99.90
11664;DHT22;72375;59.302;18.204;2024-03-02T02:32:02;4.70;99.90
11664;DHT22;72375;59.302;18.204;2024-03-02T02:34:52;4.70;99.90
11664;DHT22;72375;59.302;18.204;2024-03-02T02:37:38;4.70;99.90
11664;DHT22;72375;59.302;18.204;2024-03-02T02:40:25;4.70;99.90
11664;DHT22;72375;59.302;18.204;2024-03-02T02:43:11;4.70;99.90
11664;DHT22;72375;59.302;18.204;2024-03-02T02:45:56;4.70;99.90
11664;DHT22;72375;59.302;18.204;2024-03-02T02:48:42;4.70;99.90
11664;DHT22;72375;59.302;18.204;2024-03-02T02:51:28;4.70;99.90
11664;DHT22;72375;59.302;18.204;2024-03-02T02:54:13;4.80;99.90
11664;DHT22;72375;59.302;18.204;2024-03-02T02:57:01;4.60;99.90
11664;DHT22;72375;59.302;18.204;2024-03-02T02:59:46;4.60;99.90
11664;DHT22;72375;59.302;18.204;2024-03-02T03:02:32;4.60;99.90
11664;DHT22;72375;59.302;18.204;2024-03-02T03:05:18;4.60;99.90
11664;DHT22;72375;59.302;18.204;2024-03-02T03:08:04;4.50;99.90
11664;DHT22;72375;59.302;18.204;2024-03-02T03:10:50;4.50;99.90
11664;DHT22;72375;59.302;18.204;2024-03-02T03:13:37;4.50;99.90
11664;DHT22;72375;59.302;18.204;2024-03-02T03:16:23;4.50;99.90
11664;DHT22;72375;59.302;18.204;2024-03-02T03:19:09;4.50;99.90
11664;DHT22;72375;59.302;18.204;2024-03-02T03:21:55;4.50;99.90
11664;DHT22;72375;59.302;18.204;2024-03-02T03:24:41;4.50;99.90
11664;DHT22;72375;59.302;18.204;2024-03-02T03:27:27;4.50;99.90
11664;DHT22;72375;59.302;18.204;2024-03-02T03:30:14;4.50;99.90
11664;DHT22;72375;59.302;18.204;2024-03-02T03:33:00;4.50;99.90
11664;DHT22;72375;59.302;18.204;2024-03-02T03:35:46;4.50;99.90
11664;DHT22;72375;59.302;18.204;2024-03-02T03:38:32;4.40;99.90
11664;DHT22;72375;59.302;18.204;2024-03-02T03:41:17;4.40;99.90
11664;DHT22;72375;59.302;18.204;2024-03-02T03:44:03;4.40;99.90
11664;DHT22;72375;59.302;18.204;2024-03-02T03:46:50;4.40;99.90
11664;DHT22;72375;59.302;18.204;2024-03-02T03:49:36;4.40;99.90
11664;DHT22;72375;59.302;18.204;2024-03-02T03:52:22;4.40;99.90
11664;DHT22;72375;59.302;18.204;2024-03-02T03:55:08;4.40;99.90
11664;DHT22;72375;59.302;18.204;2024-03-02T03:57:54;4.40;99.90
11664;DHT22;72375;59.302;18.204;2024-03-02T04:00:40;4.40;99.90
11664;DHT22;72375;59.302;18.204;2024-03-02T04:03:27;4.30;99.90
11664;DHT22;72375;59.302;18.204;2024-03-02T04:06:12;4.30;99.90
11664;DHT22;72375;59.302;18.204;2024-03-02T04:08:58;4.30;99.90
11664;DHT22;72375;59.302;18.204;2024-03-02T04:11:44;4.50;99.90
11664;DHT22;72375;59.302;18.204;2024-03-02T04:14:29;4.30;99.90
11664;DHT22;72375;59.302;18.204;2024-03-02T04:17:15;4.30;99.90
11664;DHT22;72375;59.302;18.204;2024-03-02T04:20:03;4.30;99.90
11664;DHT22;72375;59.302;18.204;2024-03-02T04:22:50;4.30;99.90
11664;DHT22;72375;59.302;18.204;2024-03-02T04:25:35;4.50;99.90
11664;DHT22;72375;59.302;18.204;2024-03-02T04:28:21;4.30;99.90
11664;DHT22;72375;59.302;18.204;2024-03-02T04:31:07;4.30;99.90
11664;DHT22;72375;59.302;18.204;2024-03-02T04:33:52;4.30;99.90
11664;DHT22;72375;59.302;18.204;2024-03-02T04:36:40;4.20;99.90
11664;DHT22;72375;59.302;18.204;2024-03-02T04:39:25;4.20;99.90
11664;DHT22;72375;59.302;18.204;2024-03-02T04:42:11;4.50;99.90
11664;DHT22;72375;59.302;18.204;2024-03-02T04:44:57;4.40;99.90
11664;DHT22;72375;59.302;18.204;2024-03-02T04:47:42;4.30;99.90
11664;DHT22;72375;59.302;18.204;2024-03-02T04:50:28;4.20;99.90
11664;DHT22;72375;59.302;18.204;2024-03-02T04:53:15;4.20;99.90
11664;DHT22;72375;59.302;18.204;2024-03-02T04:56:00;4.20;99.90
11664;DHT22;72375;59.302;18.204;2024-03-02T04:59:04;4.30;99.90
11664;DHT22;72375;59.302;18.204;2024-03-02T05:01:49;4.30;99.90
11664;DHT22;72375;59.302;18.204;2024-03-02T05:04:35;4.40;99.90
11664;DHT22;72375;59.302;18.204;2024-03-02T05:07:21;4.30;99.90
11664;DHT22;72375;59.302;18.204;2024-03-02T05:10:08;4.30;99.90
11664;DHT22;72375;59.302;18.204;2024-03-02T05:12:54;4.30;99.90
11664;DHT22;72375;59.302;18.204;2024-03-02T05:15:43;4.40;99.90
11664;DHT22;72375;59.302;18.204;2024-03-02T05:18:29;4.40;99.90
11664;DHT22;72375;59.302;18.204;2024-03-02T05:21:15;4.40;99.90
11664;DHT22;72375;59.302;18.204;2024-03-02T05:24:00;4.40;99.90
11664;DHT22;72375;59.302;18.204;2024-03-02T05:26:47;4.40;99.90
11664;DHT22;72375;59.302;18.204;2024-03-02T05:29:33;4.40;99.90
11664;DHT22;72375;59.302;18.204;2024-03-02T05:32:18;4.40;99.90
11664;DHT22;72375;59.302;18.204;2024-03-02T05:35:05;4.40;99.90
11664;DHT22;72375;59.302;18.204;2024-03-02T05:37:52;4.50;99.90
11664;DHT22;72375;59.302;18.204;2024-03-02T05:40:37;4.40;99.90
11664;DHT22;72375;59.302;18.204;2024-03-02T05:43:24;4.40;99.90
11664;DHT22;72375;59.302;18.204;2024-03-02T05:46:10;4.40;99.90
11664;DHT22;72375;59.302;18.204;2024-03-02T05:48:56;4.40;99.90
11664;DHT22;72375;59.302;18.204;2024-03-02T05:51:41;4.50;99.90
11664;DHT22;72375;59.302;18.204;2024-03-02T05:54:27;4.50;99.90
11664;DHT22;72375;59.302;18.204;2024-03-02T05:57:13;4.50;99.90
11664;DHT22;72375;59.302;18.204;2024-03-02T06:00:17;4.50;99.90
11664;DHT22;72375;59.302;18.204;2024-03-02T06:03:03;4.50;99.90
11664;DHT22;72375;59.302;18.204;2024-03-02T06:05:50;4.50;99.90
11664;DHT22;72375;59.302;18.204;2024-03-02T06:08:36;4.50;99.90
11664;DHT22;72375;59.302;18.204;2024-03-02T06:11:21;4.50;99.90
11664;DHT22;72375;59.302;18.204;2024-03-02T06:14:08;4.50;99.90
11664;DHT22;72375;59.302;18.204;2024-03-02T06:16:55;4.50;99.90
11664;DHT22;72375;59.302;18.204;2024-03-02T06:19:41;4.50;99.90
11664;DHT22;72375;59.302;18.204;2024-03-02T06:22:27;4.60;99.90
11664;DHT22;72375;59.302;18.204;2024-03-02T06:25:12;4.60;99.90
11664;DHT22;72375;59.302;18.204;2024-03-02T06:27:58;4.60;99.90
11664;DHT22;72375;59.302;18.204;2024-03-02T06:30:44;4.60;99.90
11664;DHT22;72375;59.302;18.204;2024-03-02T06:33:31;4.70;99.90
11664;DHT22;72375;59.302;18.204;2024-03-02T06:36:16;4.70;99.90
11664;DHT22;72375;59.302;18.204;2024-03-02T06:39:02;4.70;99.90
11664;DHT22;72375;59.302;18.204;2024-03-02T06:41:48;4.70;99.90
11664;DHT22;72375;59.302;18.204;2024-03-02T06:44:34;4.70;99.90
11664;DHT22;72375;59.302;18.204;2024-03-02T06:47:20;4.80;99.90
11664;DHT22;72375;59.302;18.204;2024-03-02T06:50:08;4.80;99.90
11664;DHT22;72375;59.302;18.204;2024-03-02T06:52:53;4.90;99.90
11664;DHT22;72375;59.302;18.204;2024-03-02T06:55:40;4.90;99.90
11664;DHT22;72375;59.302;18.204;2024-03-02T06:58:26;5.00;99.90
11664;DHT22;72375;59.302;18.204;2024-03-02T07:01:11;5.00;99.90
11664;DHT22;72375;59.302;18.204;2024-03-02T07:03:57;5.00;99.90
11664;DHT22;72375;59.302;18.204;2024-03-02T07:06:44;5.00;99.90
11664;DHT22;72375;59.302;18.204;2024-03-02T07:09:29;5.10;99.90
11664;DHT22;72375;59.302;18.204;2024-03-02T07:12:15;5.30;99.90
11664;DHT22;72375;59.302;18.204;2024-03-02T07:15:01;5.20;99.90
11664;DHT22;72375;59.302;18.204;2024-03-02T07:18:04;5.30;99.90
11664;DHT22;72375;59.302;18.204;2024-03-02T07:20:50;5.40;99.90
11664;DHT22;72375;59.302;18.204;2024-03-02T07:23:37;5.40;99.90
11664;DHT22;72375;59.302;18.204;2024-03-02T07:26:22;5.50;99.90
11664;DHT22;72375;59.302;18.204;2024-03-02T07:29:08;5.40;99.90
11664;DHT22;72375;59.302;18.204;2024-03-02T07:31:54;5.60;99.90
11664;DHT22;72375;59.302;18.204;2024-03-02T07:34:39;5.60;99.90
11664;DHT22;72375;59.302;18.204;2024-03-02T07:37:25;5.70;99.90
11664;DHT22;72375;59.302;18.204;2024-03-02T07:40:13;5.70;99.90
11664;DHT22;72375;59.302;18.204;2024-03-02T07:42:58;5.80;99.90
11664;DHT22;72375;59.302;18.204;2024-03-02T07:45:44;5.80;99.90
11664;DHT22;72375;59.302;18.204;2024-03-02T07:48:29;5.90;99.90
11664;DHT22;72375;59.302;18.204;2024-03-02T07:51:15;5.90;99.90
11664;DHT22;72375;59.302;18.204;2024-03-02T07:54:01;5.90;99.90
11664;DHT22;72375;59.302;18.204;2024-03-02T07:56:48;6.00;99.90
11664;DHT22;72375;59.302;18.204;2024-03-02T07:59:34;6.00;99.90
11664;DHT22;72375;59.302;18.204;2024-03-02T08:02:20;6.10;99.90
11664;DHT22;72375;59.302;18.204;2024-03-02T08:05:06;6.10;99.90
11664;DHT22;72375;59.302;18.204;2024-03-02T08:07:52;6.10;99.90
11664;DHT22;72375;59.302;18.204;2024-03-02T08:10:38;6.20;99.90
11664;DHT22;72375;59.302;18.204;2024-03-02T08:13:25;6.20;99.90
11664;DHT22;72375;59.302;18.204;2024-03-02T08:16:10;6.20;99.90
11664;DHT22;72375;59.302;18.204;2024-03-02T08:18:56;6.20;99.90
11664;DHT22;72375;59.302;18.204;2024-03-02T08:21:42;6.30;99.90
11664;DHT22;72375;59.302;18.204;2024-03-02T08:24:28;6.20;99.90
11664;DHT22;72375;59.302;18.204;2024-03-02T08:27:14;6.20;99.90
11664;DHT22;72375;59.302;18.204;2024-03-02T08:30:01;6.20;99.90
11664;DHT22;72375;59.302;18.204;2024-03-02T08:32:50;6.20;99.90
11664;DHT22;72375;59.302;18.204;2024-03-02T08:35:36;6.20;99.90
11664;DHT22;72375;59.302;18.204;2024-03-02T08:38:22;6.20;99.90
11664;DHT22;72375;59.302;18.204;2024-03-02T08:41:07;6.20;99.90
11664;DHT22;72375;59.302;18.204;2024-03-02T08:43:53;6.20;99.90
11664;DHT22;72375;59.302;18.204;2024-03-02T08:46:41;6.30;99.90
11664;DHT22;72375;59.302;18.204;2024-03-02T08:49:27;6.30;99.90
11664;DHT22;72375;59.302;18.204;2024-03-02T08:52:12;6.30;99.90
11664;DHT22;72375;59.302;18.204;2024-03-02T08:54:58;6.30;99.90
11664;DHT22;72375;59.302;18.204;2024-03-02T08:57:44;6.30;99.90
11664;DHT22;72375;59.302;18.204;2024-03-02T09:00:29;6.30;99.90
11664;DHT22;72375;59.302;18.204;2024-03-02T09:03:16;6.30;99.90
11664;DHT22;72375;59.302;18.204;2024-03-02T09:06:02;6.30;99.90
11664;DHT22;72375;59.302;18.204;2024-03-02T09:08:48;6.40;99.90
11664;DHT22;72375;59.302;18.204;2024-03-02T09:11:36;6.40;99.90
11664;DHT22;72375;59.302;18.204;2024-03-02T09:14:21;6.50;99.90
11664;DHT22;72375;59.302;18.204;2024-03-02T09:17:08;6.50;99.90
11664;DHT22;72375;59.302;18.204;2024-03-02T09:19:56;6.50;99.90
11664;DHT22;72375;59.302;18.204;2024-03-02T09:22:41;6.60;99.90
11664;DHT22;72375;59.302;18.204;2024-03-02T09:25:27;6.60;99.90
11664;DHT22;72375;59.302;18.204;2024-03-02T09:28:15;6.70;99.90
11664;DHT22;72375;59.302;18.204;2024-03-02T09:31:01;6.80;99.90
11664;DHT22;72375;59.302;18.204;2024-03-02T09:33:46;6.90;99.90
11664;DHT22;72375;59.302;18.204;2024-03-02T09:36:34;7.10;99.90
11664;DHT22;72375;59.302;18.204;2024-03-02T09:39:19;7.20;99.90
11664;DHT22;72375;59.302;18.204;2024-03-02T09:42:05;7.30;99.90
11664;DHT22;72375;59.302;18.204;2024-03-02T09:44:52;7.50;99.90
11664;DHT22;72375;59.302;18.204;2024-03-02T09:47:38;7.50;99.90
11664;DHT22;72375;59.302;18.204;2024-03-02T09:50:23;7.50;99.90
11664;DHT22;72375;59.302;18.204;2024-03-02T09:53:12;7.50;99.90
11664;DHT22;72375;59.302;18.204;2024-03-02T09:55:59;7.50;99.90
11664;DHT22;72375;59.302;18.204;2024-03-02T09:58:45;7.50;99.90
11664;DHT22;72375;59.302;18.204;2024-03-02T10:01:30;7.50;99.90
11664;DHT22;72375;59.302;18.204;2024-03-02T10:04:16;7.40;99.90
11664;DHT22;72375;59.302;18.204;2024-03-02T10:07:12;7.50;99.90
11664;DHT22;72375;59.302;18.204;2024-03-02T10:10:12;7.40;99.90
11664;DHT22;72375;59.302;18.204;2024-03-02T10:13:03;7.50;99.90
11664;DHT22;72375;59.302;18.204;2024-03-02T10:15:50;7.40;99.90
11664;DHT22;72375;59.302;18.204;2024-03-02T10:18:36;7.40;99.90
11664;DHT22;72375;59.302;18.204;2024-03-02T10:21:21;7.40;99.90
11664;DHT22;72375;59.302;18.204;2024-03-02T10:24:08;7.40;99.90
11664;DHT22;72375;59.302;18.204;2024-03-02T10:26:56;7.30;99.90
11664;DHT22;72375;59.302;18.204;2024-03-02T10:29:45;7.30;99.90
11664;DHT22;72375;59.302;18.204;2024-03-02T10:32:31;7.30;99.90
11664;DHT22;72375;59.302;18.204;2024-03-02T10:35:17;7.30;99.90
11664;DHT22;72375;59.302;18.204;2024-03-02T10:38:04;7.30;99.90
11664;DHT22;72375;59.302;18.204;2024-03-02T10:40:50;7.30;99.90
11664;DHT22;72375;59.302;18.204;2024-03-02T10:43:38;7.40;99.90
11664;DHT22;72375;59.302;18.204;2024-03-02T10:46:25;7.40;99.90
11664;DHT22;72375;59.302;18.204;2024-03-02T10:49:13;7.40;99.90
11664;DHT22;72375;59.302;18.204;2024-03-02T10:51:58;7.40;99.90
11664;DHT22;72375;59.302;18.204;2024-03-02T10:54:44;7.40;99.90
11664;DHT22;72375;59.302;18.204;2024-03-02T10:57:33;7.40;99.90
11664;DHT22;72375;59.302;18.204;2024-03-02T11:00:25;7.40;99.90
11664;DHT22;72375;59.302;18.204;2024-03-02T11:03:14;7.40;99.90
11664;DHT22;72375;59.302;18.204;2024-03-02T11:06:01;7.50;99.90
11664;DHT22;72375;59.302;18.204;2024-03-02T11:08:52;7.50;99.90
11664;DHT22;72375;59.302;18.204;2024-03-02T11:11:44;7.50;99.90
11664;DHT22;72375;59.302;18.204;2024-03-02T11:14:32;7.60;99.90
11664;DHT22;72375;59.302;18.204;2024-03-02T11:17:20;7.50;99.90
11664;DHT22;72375;59.302;18.204;2024-03-02T11:20:08;7.60;99.90
11664;DHT22;72375;59.302;18.204;2024-03-02T11:22:54;7.60;99.90
11664;DHT22;72375;59.302;18.204;2024-03-02T11:25:40;7.50;99.90
11664;DHT22;72375;59.302;18.204;2024-03-02T11:28:35;7.50;99.90
11664;DHT22;72375;59.302;18.204;2024-03-02T11:31:21;7.50;99.90
11664;DHT22;72375;59.302;18.204;2024-03-02T11:34:29;7.50;99.90
11664;DHT22;72375;59.302;18.204;2024-03-02T11:37:15;7.50;99.90
11664;DHT22;72375;59.302;18.204;2024-03-02T11:40:00;7.50;99.90
11664;DHT22;72375;59.302;18.204;2024-03-02T11:42:47;7.50;99.90
11664;DHT22;72375;59.302;18.204;2024-03-02T11:45:33;7.50;99.90
11664;DHT22;72375;59.302;18.204;2024-03-02T11:48:20;7.50;99.90
11664;DHT22;72375;59.302;18.204;2024-03-02T11:51:06;7.50;99.90
11664;DHT22;72375;59.302;18.204;2024-03-02T11:53:54;7.50;99.90
11664;DHT22;72375;59.302;18.204;2024-03-02T11:56:41;7.50;99.90
11664;DHT22;72375;59.302;18.204;2024-03-02T11:59:28;7.50;99.90
11664;DHT22;72375;59.302;18.204;2024-03-02T12:02:16;7.50;99.90
11664;DHT22;72375;59.302;18.204;2024-03-02T12:05:03;7.50;99.90
11664;DHT22;72375;59.302;18.204;2024-03-02T12:07:55;7.50;99.90
11664;DHT22;72375;59.302;18.204;2024-03-02T12:10:41;7.50;99.90
11664;DHT22;72375;59.302;18.204;2024-03-02T12:13:27;7.50;99.90
11664;DHT22;72375;59.302;18.204;2024-03-02T12:16:23;7.50;99.90
11664;DHT22;72375;59.302;18.204;2024-03-02T12:19:09;7.50;99.90
11664;DHT22;72375;59.302;18.204;2024-03-02T12:21:55;7.60;99.90
11664;DHT22;72375;59.302;18.204;2024-03-02T12:24:43;7.60;99.90
11664;DHT22;72375;59.302;18.204;2024-03-02T12:27:29;7.60;99.90
11664;DHT22;72375;59.302;18.204;2024-03-02T12:30:16;7.60;99.90
11664;DHT22;72375;59.302;18.204;2024-03-02T12:33:03;7.50;99.90
11664;DHT22;72375;59.302;18.204;2024-03-02T12:35:49;7.50;99.90
11664;DHT22;72375;59.302;18.204;2024-03-02T12:38:34;7.50;99.90
11664;DHT22;72375;59.302;18.204;2024-03-02T12:41:22;7.50;99.90
11664;DHT22;72375;59.302;18.204;2024-03-02T12:44:08;7.40;99.90
11664;DHT22;72375;59.302;18.204;2024-03-02T12:46:54;7.40;99.90
11664;DHT22;72375;59.302;18.204;2024-03-02T12:49:40;7.40;99.90
11664;DHT22;72375;59.302;18.204;2024-03-02T12:52:26;7.40;99.90
11664;DHT22;72375;59.302;18.204;2024-03-02T12:55:11;7.40;99.90
11664;DHT22;72375;59.302;18.204;2024-03-02T12:57:58;7.40;99.90
11664;DHT22;72375;59.302;18.204;2024-03-02T13:00:44;7.30;99.90
11664;DHT22;72375;59.302;18.204;2024-03-02T13:03:29;7.30;99.90
11664;DHT22;72375;59.302;18.204;2024-03-02T13:06:16;7.30;99.90
11664;DHT22;72375;59.302;18.204;2024-03-02T13:09:03;7.30;99.90
11664;DHT22;72375;59.302;18.204;2024-03-02T13:11:49;7.30;99.90
11664;DHT22;72375;59.302;18.204;2024-03-02T13:14:36;7.30;99.90
11664;DHT22;72375;59.302;18.204;2024-03-02T13:17:22;7.30;99.90
11664;DHT22;72375;59.302;18.204;2024-03-02T13:20:08;7.30;99.90
11664;DHT22;72375;59.302;18.204;2024-03-02T13:22:54;7.30;99.90
11664;DHT22;72375;59.302;18.204;2024-03-02T13:25:40;7.20;99.90
11664;DHT22;72375;59.302;18.204;2024-03-02T13:28:25;7.20;99.90
11664;DHT22;72375;59.302;18.204;2024-03-02T13:31:12;7.20;99.90
11664;DHT22;72375;59.302;18.204;2024-03-02T13:33:58;7.20;99.90
11664;DHT22;72375;59.302;18.204;2024-03-02T13:36:43;7.20;99.90
11664;DHT22;72375;59.302;18.204;2024-03-02T13:39:29;7.10;99.90
11664;DHT22;72375;59.302;18.204;2024-03-02T13:42:16;7.20;99.90
11664;DHT22;72375;59.302;18.204;2024-03-02T13:45:01;7.20;99.90
11664;DHT22;72375;59.302;18.204;2024-03-02T13:47:49;7.20;99.90
11664;DHT22;72375;59.302;18.204;2024-03-02T13:50:36;7.20;99.90
11664;DHT22;72375;59.302;18.204;2024-03-02T13:53:21;7.20;99.90
11664;DHT22;72375;59.302;18.204;2024-03-02T13:56:07;7.20;99.90
11664;DHT22;72375;59.302;18.204;2024-03-02T13:58:53;7.20;99.90
11664;DHT22;72375;59.302;18.204;2024-03-02T14:01:39;7.20;99.90
11664;DHT22;72375;59.302;18.204;2024-03-02T14:04:26;7.20;99.90
11664;DHT22;72375;59.302;18.204;2024-03-02T14:07:12;7.20;99.90
11664;DHT22;72375;59.302;18.204;2024-03-02T14:09:58;7.20;99.90
11664;DHT22;72375;59.302;18.204;2024-03-02T14:12:44;7.10;99.90
11664;DHT22;72375;59.302;18.204;2024-03-02T14:15:29;7.10;99.90
11664;DHT22;72375;59.302;18.204;2024-03-02T14:18:15;7.10;99.90
11664;DHT22;72375;59.302;18.204;2024-03-02T14:21:03;7.10;99.90
11664;DHT22;72375;59.302;18.204;2024-03-02T14:23:48;7.20;99.90
11664;DHT22;72375;59.302;18.204;2024-03-02T14:26:34;7.20;99.90
11664;DHT22;72375;59.302;18.204;2024-03-02T14:29:20;7.20;99.90
11664;DHT22;72375;59.302;18.204;2024-03-02T14:32:06;7.20;99.90
11664;DHT22;72375;59.302;18.204;2024-03-02T14:34:52;7.20;99.90
11664;DHT22;72375;59.302;18.204;2024-03-02T14:37:39;7.20;99.90
11664;DHT22;72375;59.302;18.204;2024-03-02T14:40:25;7.20;99.90
11664;DHT22;72375;59.302;18.204;2024-03-02T14:43:13;7.20;99.90
11664;DHT22;72375;59.302;18.204;2024-03-02T14:45:58;7.10;99.90
11664;DHT22;72375;59.302;18.204;2024-03-02T14:48:45;7.10;99.90
11664;DHT22;72375;59.302;18.204;2024-03-02T14:51:31;7.10;99.90
11664;DHT22;72375;59.302;18.204;2024-03-02T14:54:18;7.10;99.90
11664;DHT22;72375;59.302;18.204;2024-03-02T14:57:04;7.10;99.90
11664;DHT22;72375;59.302;18.204;2024-03-02T14:59:50;7.10;99.90
11664;DHT22;72375;59.302;18.204;2024-03-02T15:02:35;7.10;99.90
11664;DHT22;72375;59.302;18.204;2024-03-02T15:05:21;7.10;99.90
11664;DHT22;72375;59.302;18.204;2024-03-02T15:08:07;7.10;99.90
11664;DHT22;72375;59.302;18.204;2024-03-02T15:10:54;7.10;99.90
11664;DHT22;72375;59.302;18.204;2024-03-02T15:13:42;7.10;99.90
11664;DHT22;72375;59.302;18.204;2024-03-02T15:16:27;7.10;99.90
11664;DHT22;72375;59.302;18.204;2024-03-02T15:19:13;7.00;99.90
11664;DHT22;72375;59.302;18.204;2024-03-02T15:21:59;7.00;99.90
11664;DHT22;72375;59.302;18.204;2024-03-02T15:24:45;7.00;99.90
11664;DHT22;72375;59.302;18.204;2024-03-02T15:27:32;6.90;99.90
11664;DHT22;72375;59.302;18.204;2024-03-02T15:30:18;6.90;99.90
11664;DHT22;72375;59.302;18.204;2024-03-02T15:33:04;6.90;99.90
11664;DHT22;72375;59.302;18.204;2024-03-02T15:35:50;6.90;99.90
11664;DHT22;72375;59.302;18.204;2024-03-02T15:38:36;6.90;99.90
11664;DHT22;72375;59.302;18.204;2024-03-02T15:41:22;6.80;99.90
11664;DHT22;72375;59.302;18.204;2024-03-02T15:44:09;6.80;99.90
11664;DHT22;72375;59.302;18.204;2024-03-02T15:46:54;6.80;99.90
11664;DHT22;72375;59.302;18.204;2024-03-02T15:49:40;6.70;99.90
11664;DHT22;72375;59.302;18.204;2024-03-02T15:52:26;6.70;99.90
11664;DHT22;72375;59.302;18.204;2024-03-02T15:55:12;6.70;99.90
11664;DHT22;72375;59.302;18.204;2024-03-02T15:57:57;6.70;99.90
11664;DHT22;72375;59.302;18.204;2024-03-02T16:00:44;6.60;99.90
11664;DHT22;72375;59.302;18.204;2024-03-02T16:03:30;6.60;99.90
11664;DHT22;72375;59.302;18.204;2024-03-02T16:06:16;6.60;99.90
11664;DHT22;72375;59.302;18.204;2024-03-02T16:09:02;6.60;99.90
11664;DHT22;72375;59.302;18.204;2024-03-02T16:11:49;6.60;99.90
11664;DHT22;72375;59.302;18.204;2024-03-02T16:14:35;6.60;99.90
11664;DHT22;72375;59.302;18.204;2024-03-02T16:17:23;6.60;99.90
11664;DHT22;72375;59.302;18.204;2024-03-02T16:20:09;6.50;99.90
11664;DHT22;72375;59.302;18.204;2024-03-02T16:22:54;6.50;99.90
11664;DHT22;72375;59.302;18.204;2024-03-02T16:25:40;6.50;99.90
11664;DHT22;72375;59.302;18.204;2024-03-02T16:28:26;6.40;99.90
11664;DHT22;72375;59.302;18.204;2024-03-02T16:31:12;6.40;99.90
11664;DHT22;72375;59.302;18.204;2024-03-02T16:34:00;6.40;99.90
11664;DHT22;72375;59.302;18.204;2024-03-02T16:36:46;6.40;99.90
11664;DHT22;72375;59.302;18.204;2024-03-02T16:39:32;6.40;99.90
11664;DHT22;72375;59.302;18.204;2024-03-02T16:42:18;6.30;99.90
11664;DHT22;72375;59.302;18.204;2024-03-02T16:45:04;6.30;99.90
11664;DHT22;72375;59.302;18.204;2024-03-02T16:47:50;6.30;99.90
11664;DHT22;72375;59.302;18.204;2024-03-02T16:50:36;6.30;99.90
11664;DHT22;72375;59.302;18.204;2024-03-02T16:53:22;6.30;99.90
11664;DHT22;72375;59.302;18.204;2024-03-02T16:56:08;6.30;99.90
11664;DHT22;72375;59.302;18.204;2024-03-02T16:58:54;6.30;99.90
11664;DHT22;72375;59.302;18.204;2024-03-02T17:01:39;6.30;99.90
11664;DHT22;72375;59.302;18.204;2024-03-02T17:04:25;6.30;99.90
11664;DHT22;72375;59.302;18.204;2024-03-02T17:07:13;6.20;99.90
11664;DHT22;72375;59.302;18.204;2024-03-02T17:09:58;6.20;99.90
11664;DHT22;72375;59.302;18.204;2024-03-02T17:12:44;6.20;99.90
11664;DHT22;72375;59.302;18.204;2024-03-02T17:15:30;6.20;99.90
11664;DHT22;72375;59.302;18.204;2024-03-02T17:18:15;6.20;99.90
11664;DHT22;72375;59.302;18.204;2024-03-02T17:21:01;6.20;99.90
11664;DHT22;72375;59.302;18.204;2024-03-02T17:23:48;6.20;99.90
11664;DHT22;72375;59.302;18.204;2024-03-02T17:26:34;6.10;99.90
11664;DHT22;72375;59.302;18.204;2024-03-02T17:29:20;6.10;99.90
11664;DHT22;72375;59.302;18.204;2024-03-02T17:32:06;6.10;99.90